createdAt,value
2022-11-25T00:02:25.327Z,100712.91
2022-11-25T00:04:58.173Z,100715.56
2022-11-25T00:07:30.949Z,100702.28
2022-11-25T00:10:03.701Z,100710.00
2022-11-25T00:12:36.368Z,100703.69
2022-11-25T00:15:10.700Z,100703.09
2022-11-25T00:17:43.456Z,100701.28
2022-11-25T00:20:16.234Z,100698.13
2022-11-25T00:22:48.921Z,100699.78
2022-11-25T00:25:22.334Z,100704.50
2022-11-25T00:27:55.165Z,100705.69
2022-11-25T00:30:32.904Z,100710.69
2022-11-25T00:33:05.467Z,100711.56
2022-11-25T00:35:38.044Z,100707.25
2022-11-25T00:38:10.607Z,100715.31
2022-11-25T00:40:43.159Z,100720.78
2022-11-25T00:43:33.173Z,100718.94
2022-11-25T00:46:07.188Z,100720.78
2022-11-25T00:48:40.039Z,100728.41
2022-11-25T00:51:12.659Z,100722.06
2022-11-25T00:53:45.624Z,100722.81
2022-11-25T00:56:18.398Z,100726.84
2022-11-25T00:58:50.983Z,100712.78
2022-11-25T01:01:25.255Z,100710.44
2022-11-25T01:03:57.909Z,100722.50
2022-11-25T01:06:30.630Z,100725.28
2022-11-25T01:09:03.847Z,100725.34
2022-11-25T01:11:36.509Z,100726.06
2022-11-25T01:14:09.863Z,100714.75
2022-11-25T01:16:44.049Z,100715.91
2022-11-25T01:19:17.490Z,100702.56
2022-11-25T01:21:50.104Z,100695.16
2022-11-25T01:24:24.148Z,100693.16
2022-11-25T01:26:59.665Z,100716.88
2022-11-25T01:29:32.241Z,100724.50
2022-11-25T01:32:07.296Z,100733.03
2022-11-25T01:34:40.118Z,100729.19
2022-11-25T01:37:12.842Z,100732.00
2022-11-25T01:39:45.595Z,100729.19
2022-11-25T01:42:18.573Z,100726.28
2022-11-25T01:45:06.056Z,100728.28
2022-11-25T01:47:39.977Z,100718.84
2022-11-25T01:50:14.127Z,100724.72
2022-11-25T01:52:50.141Z,100734.56
2022-11-25T01:55:25.679Z,100738.81
2022-11-25T01:58:00.468Z,100727.41
2022-11-25T02:00:33.169Z,100744.28
2022-11-25T02:03:08.371Z,100744.56
2022-11-25T02:05:47.294Z,100743.81
2022-11-25T02:08:21.092Z,100740.34
2022-11-25T02:10:54.518Z,100725.78
2022-11-25T02:13:27.368Z,100720.31
2022-11-25T02:16:00.017Z,100714.13
2022-11-25T02:18:34.329Z,100729.78
2022-11-25T02:21:07.199Z,100732.16
2022-11-25T02:23:43.080Z,100727.94
2022-11-25T02:26:17.249Z,100727.13
2022-11-25T02:28:50.112Z,100730.50
2022-11-25T02:31:26.697Z,100732.06
2022-11-25T02:33:59.636Z,100733.72
2022-11-25T02:36:32.597Z,100744.31
2022-11-25T02:39:05.826Z,100739.19
2022-11-25T02:41:43.154Z,100750.63
2022-11-25T02:44:15.996Z,100750.56
2022-11-25T02:46:49.122Z,100756.44
2022-11-25T02:49:24.560Z,100752.78
2022-11-25T02:51:57.667Z,100755.53
2022-11-25T02:54:30.309Z,100758.00
2022-11-25T02:57:04.344Z,100759.94
2022-11-25T02:59:39.680Z,100766.53
2022-11-25T03:02:12.328Z,100770.41
2022-11-25T03:04:49.071Z,100772.72
2022-11-25T03:07:21.865Z,100770.28
2022-11-25T03:09:54.658Z,100778.63
2022-11-25T03:12:30.161Z,100777.34
2022-11-25T03:15:03.961Z,100785.78
2022-11-25T03:17:36.488Z,100786.34
2022-11-25T03:20:09.709Z,100780.94
2022-11-25T03:22:42.646Z,100786.84
2022-11-25T03:25:15.409Z,100784.47
2022-11-25T03:27:50.513Z,100800.84
2022-11-25T03:30:24.544Z,100794.28
2022-11-25T03:33:00.156Z,100806.72
2022-11-25T03:35:33.304Z,100813.28
2022-11-25T03:38:05.948Z,100806.22
2022-11-25T03:40:41.704Z,100817.28
2022-11-25T03:43:16.256Z,100822.69
2022-11-25T03:45:49.447Z,100822.53
2022-11-25T03:48:22.836Z,100820.91
2022-11-25T03:50:55.560Z,100824.09
2022-11-25T03:53:30.385Z,100821.78
2022-11-25T03:56:05.522Z,100820.19
2022-11-25T03:58:39.449Z,100818.56
2022-11-25T04:01:14.750Z,100827.53
2022-11-25T04:03:50.886Z,100819.19
2022-11-25T04:06:24.074Z,100828.69
2022-11-25T04:08:59.537Z,100828.63
2022-11-25T04:11:46.465Z,100834.47
2022-11-25T04:14:20.850Z,100835.31
2022-11-25T04:16:53.623Z,100841.16
2022-11-25T04:19:26.587Z,100832.41
2022-11-25T04:21:59.789Z,100836.31
2022-11-25T04:24:35.697Z,100833.50
2022-11-25T04:27:09.744Z,100842.94
2022-11-25T04:29:44.760Z,100845.94
2022-11-25T04:32:19.969Z,100848.59
2022-11-25T04:34:52.452Z,100851.75
2022-11-25T04:37:25.873Z,100854.59
2022-11-25T04:39:59.928Z,100858.91
2022-11-25T04:42:33.233Z,100854.63
2022-11-25T04:45:26.173Z,100857.31
2022-11-25T04:48:01.366Z,100861.56
2022-11-25T04:50:34.684Z,100873.38
2022-11-25T04:53:13.561Z,100873.69
2022-11-25T04:55:46.125Z,100872.19
2022-11-25T04:58:35.040Z,100879.91
2022-11-25T05:01:10.645Z,100889.56
2022-11-25T05:03:54.437Z,100893.84
2022-11-25T05:06:30.099Z,100891.22
2022-11-25T05:09:04.542Z,100885.38
2022-11-25T05:11:39.420Z,100893.97
2022-11-25T05:14:12.022Z,100891.53
2022-11-25T05:16:46.553Z,100906.38
2022-11-25T05:19:19.506Z,100903.63
2022-11-25T05:21:52.185Z,100916.59
2022-11-25T05:24:25.036Z,100918.91
2022-11-25T05:26:58.553Z,100923.47
2022-11-25T05:29:31.261Z,100924.53
2022-11-25T05:32:05.332Z,100922.06
2022-11-25T05:34:39.061Z,100928.69
2022-11-25T05:37:14.171Z,100930.94
2022-11-25T05:39:54.709Z,100932.06
2022-11-25T05:42:38.963Z,100935.63
2022-11-25T05:45:13.606Z,100935.63
2022-11-25T05:47:47.716Z,100942.69
2022-11-25T05:50:24.954Z,100939.03
2022-11-25T05:53:17.239Z,100948.41
2022-11-25T05:55:54.773Z,100946.03
2022-11-25T05:58:35.821Z,100950.19
2022-11-25T06:01:10.423Z,100960.78
2022-11-25T06:03:44.512Z,100958.13
2022-11-25T06:06:17.664Z,100952.09
2022-11-25T06:08:50.425Z,100956.13
2022-11-25T06:11:23.343Z,100956.13
2022-11-25T06:13:57.489Z,100954.47
2022-11-25T06:16:30.386Z,100959.94
2022-11-25T06:19:23.303Z,100962.19
2022-11-25T06:21:57.751Z,100968.81
2022-11-25T06:24:31.770Z,100968.28
2022-11-25T06:27:10.009Z,100984.72
2022-11-25T06:29:44.156Z,100985.44
2022-11-25T06:32:17.513Z,100985.22
2022-11-25T06:35:11.031Z,100992.00
2022-11-25T06:37:56.379Z,100999.69
2022-11-25T06:40:28.922Z,101002.13
2022-11-25T06:43:01.512Z,101011.63
2022-11-25T06:45:34.506Z,101023.38
2022-11-25T06:48:07.227Z,101014.81
2022-11-25T06:50:41.136Z,101018.56
2022-11-25T06:53:13.684Z,101022.50
2022-11-25T06:55:46.294Z,101031.16
2022-11-25T06:58:34.932Z,101032.66
2022-11-25T07:01:11.712Z,101034.59
2022-11-25T07:03:44.909Z,101030.97
2022-11-25T07:06:19.303Z,101042.03
2022-11-25T07:08:52.480Z,101036.66
2022-11-25T07:11:26.422Z,101042.66
2022-11-25T07:14:00.123Z,101047.22
2022-11-25T07:16:33.642Z,101046.72
2022-11-25T07:19:07.144Z,101052.00
2022-11-25T07:21:43.278Z,101052.72
2022-11-25T07:24:16.823Z,101057.66
2022-11-25T07:26:49.325Z,101061.50
2022-11-25T07:32:14.500Z,101081.66
2022-11-25T07:34:47.150Z,101087.13
2022-11-25T07:37:21.247Z,101088.38
2022-11-25T07:39:54.309Z,101095.78
2022-11-25T07:42:26.949Z,101099.66
2022-11-25T07:44:59.870Z,101104.88
2022-11-25T07:47:46.153Z,101111.31
2022-11-25T07:50:19.041Z,101119.53
2022-11-25T07:52:53.037Z,101123.16
2022-11-25T07:55:25.627Z,101125.41
2022-11-25T07:57:58.123Z,101124.56
2022-11-25T08:00:30.660Z,101127.38
2022-11-25T08:03:03.420Z,101134.59
2022-11-25T08:05:36.293Z,101137.16
2022-11-25T08:08:10.316Z,101147.31
2022-11-25T08:10:42.895Z,101147.25
2022-11-25T08:13:15.515Z,101153.25
2022-11-25T08:15:48.295Z,101160.00
2022-11-25T08:18:20.809Z,101168.69
2022-11-25T08:20:53.790Z,101159.75
2022-11-25T08:23:27.678Z,101164.53
2022-11-25T08:26:04.355Z,101157.38
2022-11-25T08:28:37.723Z,101152.34
2022-11-25T08:31:11.995Z,101154.03
2022-11-25T08:33:44.839Z,101165.16
2022-11-25T08:36:17.933Z,101163.19
2022-11-25T08:38:53.057Z,101173.06
2022-11-25T08:41:27.967Z,101166.72
2022-11-25T08:44:01.742Z,101175.38
2022-11-25T08:46:36.713Z,101185.47
2022-11-25T08:49:09.871Z,101187.22
2022-11-25T08:51:42.587Z,101200.63
2022-11-25T08:54:17.059Z,101195.44
2022-11-25T08:56:49.676Z,101199.75
2022-11-25T08:59:22.790Z,101193.06
2022-11-25T09:01:55.684Z,101203.72
2022-11-25T09:04:28.327Z,101205.41
2022-11-25T09:07:00.992Z,101213.97
2022-11-25T09:09:35.692Z,101209.72
2022-11-25T09:12:08.732Z,101218.53
2022-11-25T09:14:41.494Z,101216.41
2022-11-25T09:17:15.641Z,101232.22
2022-11-25T09:19:48.207Z,101229.97
2022-11-25T09:22:20.788Z,101240.34
2022-11-25T09:24:54.787Z,101247.41
2022-11-25T09:27:27.490Z,101254.81
2022-11-25T09:30:00.098Z,101260.22
2022-11-25T09:32:32.824Z,101265.09
2022-11-25T09:35:05.723Z,101266.22
2022-11-25T09:37:38.434Z,101275.59
2022-11-25T09:40:18.560Z,101279.38
2022-11-25T09:43:11.923Z,101282.47
2022-11-25T09:46:06.370Z,101279.13
2022-11-25T09:48:44.345Z,101289.09
2022-11-25T09:51:20.063Z,101289.94
2022-11-25T09:53:54.492Z,101302.66
2022-11-25T09:56:33.013Z,101307.66
2022-11-25T09:59:08.211Z,101310.63
2022-11-25T10:01:46.940Z,101312.19
2022-11-25T10:04:24.502Z,101306.09
2022-11-25T10:07:01.136Z,101311.81
2022-11-25T10:09:36.747Z,101309.59
2022-11-25T10:12:17.399Z,101317.59
2022-11-25T10:14:50.677Z,101325.41
2022-11-25T10:17:31.518Z,101332.22
2022-11-25T10:20:06.379Z,101331.31
2022-11-25T10:22:42.812Z,101338.06
2022-11-25T10:25:16.935Z,101335.91
2022-11-25T10:27:53.873Z,101342.03
2022-11-25T10:30:27.575Z,101351.59
2022-11-25T10:33:04.728Z,101355.19
2022-11-25T10:35:41.434Z,101355.47
2022-11-25T10:38:19.120Z,101366.53
2022-11-25T10:40:53.424Z,101367.09
2022-11-25T10:43:31.679Z,101372.22
2022-11-25T10:46:10.327Z,101377.19
2022-11-25T10:48:49.540Z,101378.03
2022-11-25T10:51:32.811Z,101378.13
2022-11-25T10:54:16.806Z,101375.81
2022-11-25T10:56:51.570Z,101393.94
2022-11-25T10:59:29.799Z,101386.22
2022-11-25T11:02:15.875Z,101400.09
2022-11-25T11:05:06.172Z,101410.09
2022-11-25T11:07:40.635Z,101417.13
2022-11-25T11:10:20.667Z,101421.31
2022-11-25T11:12:57.502Z,101416.78
2022-11-25T11:15:32.215Z,101416.13
2022-11-25T11:18:16.071Z,101428.34
2022-11-25T11:20:49.580Z,101435.84
2022-11-25T11:23:22.617Z,101436.22
2022-11-25T11:25:56.545Z,101437.53
2022-11-25T11:28:32.905Z,101441.16
2022-11-25T11:31:08.812Z,101450.66
2022-11-25T11:33:44.273Z,101445.75
2022-11-25T11:36:23.157Z,101457.09
2022-11-25T11:38:57.765Z,101455.44
2022-11-25T11:41:36.860Z,101453.88
2022-11-25T11:44:14.828Z,101455.88
2022-11-25T11:46:59.905Z,101456.31
2022-11-25T11:49:50.359Z,101459.84
2022-11-25T11:52:28.734Z,101463.84
2022-11-25T11:55:03.520Z,101460.38
2022-11-25T11:57:42.701Z,101466.28
2022-11-25T12:00:17.494Z,101474.53
2022-11-25T12:02:57.963Z,101469.13
2022-11-25T12:05:34.347Z,101475.84
2022-11-25T12:08:11.346Z,101481.84
2022-11-25T12:10:45.729Z,101487.41
2022-11-25T12:13:21.297Z,101494.41
2022-11-25T12:15:56.449Z,101484.34
2022-11-25T12:18:36.019Z,101500.19
2022-11-25T12:21:10.606Z,101503.84
2022-11-25T12:23:46.129Z,101499.53
2022-11-25T12:26:21.909Z,101505.81
2022-11-25T12:28:56.376Z,101508.19
2022-11-25T12:31:31.041Z,101517.69
2022-11-25T12:34:07.023Z,101517.72
2022-11-25T12:36:41.616Z,101518.59
2022-11-25T12:39:20.482Z,101520.63
2022-11-25T12:41:54.306Z,101521.03
2022-11-25T12:44:30.739Z,101531.38
2022-11-25T12:47:03.669Z,101527.81
2022-11-25T12:49:41.486Z,101536.06
2022-11-25T12:52:37.277Z,101542.44
2022-11-25T12:55:11.365Z,101534.44
2022-11-25T12:58:07.902Z,101528.16
2022-11-25T13:00:52.632Z,101541.56
2022-11-25T13:03:38.756Z,101532.47
2022-11-25T13:06:23.829Z,101547.94
2022-11-25T13:08:59.957Z,101550.75
2022-11-25T13:11:42.390Z,101552.66
2022-11-25T13:14:21.941Z,101568.38
2022-11-25T13:16:56.302Z,101575.09
2022-11-25T13:19:29.229Z,101576.13
2022-11-25T13:22:04.471Z,101586.47
2022-11-25T13:24:40.028Z,101584.78
2022-11-25T13:27:32.899Z,101581.13
2022-11-25T13:30:25.874Z,101585.47
2022-11-25T13:32:58.832Z,101583.88
2022-11-25T13:35:32.553Z,101593.16
2022-11-25T13:38:22.912Z,101601.91
2022-11-25T13:40:59.172Z,101601.81
2022-11-25T13:43:31.728Z,101610.16
2022-11-25T13:46:04.613Z,101618.25
2022-11-25T13:48:38.136Z,101618.69
2022-11-25T13:51:16.390Z,101626.22
2022-11-25T13:53:52.659Z,101626.44
2022-11-25T13:56:31.635Z,101632.38
2022-11-25T13:59:20.323Z,101639.31
2022-11-25T14:01:54.040Z,101636.84
2022-11-25T14:04:37.488Z,101651.78
2022-11-25T14:07:20.111Z,101647.00
2022-11-25T14:10:01.869Z,101656.69
2022-11-25T14:12:49.718Z,101655.91
2022-11-25T14:15:31.400Z,101663.63
2022-11-25T14:18:31.478Z,101668.97
2022-11-25T14:21:22.829Z,101668.53
2022-11-25T14:24:04.196Z,101672.69
2022-11-25T14:26:49.657Z,101676.59
2022-11-25T14:29:27.767Z,101684.66
2022-11-25T14:32:02.314Z,101679.19
2022-11-25T14:34:37.795Z,101680.50
2022-11-25T14:37:15.447Z,101681.19
2022-11-25T14:39:51.644Z,101683.25
2022-11-25T14:42:29.052Z,101691.03
2022-11-25T14:45:03.302Z,101695.66
2022-11-25T14:47:39.278Z,101700.84
2022-11-25T14:53:07.837Z,101717.66
2022-11-25T14:55:40.844Z,101727.91
2022-11-25T14:58:13.956Z,101732.00
2022-11-25T15:01:02.783Z,101727.56
2022-11-25T15:03:35.560Z,101734.03
2022-11-25T15:06:08.294Z,101741.66
2022-11-25T15:08:42.431Z,101742.81
2022-11-25T15:11:23.359Z,101752.72
2022-11-25T15:13:58.694Z,101755.38
2022-11-25T15:16:34.605Z,101760.09
2022-11-25T15:19:13.214Z,101761.25
2022-11-25T15:22:14.998Z,101769.38
2022-11-25T15:24:42.583Z,101769.94
2022-11-25T15:27:16.165Z,101779.34
2022-11-25T15:29:52.254Z,101783.59
2022-11-25T15:32:28.185Z,101780.31
2022-11-25T15:35:02.479Z,101785.38
2022-11-25T15:37:35.601Z,101794.28
2022-11-25T15:40:26.619Z,101811.03
2022-11-25T15:43:01.109Z,101816.31
2022-11-25T15:45:45.322Z,101819.53
2022-11-25T15:48:27.195Z,101826.44
2022-11-25T15:51:05.657Z,101818.63
2022-11-25T15:53:41.675Z,101832.63
2022-11-25T15:56:22.338Z,101835.28
2022-11-25T15:59:00.276Z,101834.03
2022-11-25T16:01:35.216Z,101852.78
2022-11-25T16:04:13.929Z,101859.00
2022-11-25T16:06:54.027Z,101864.47
2022-11-25T16:09:33.017Z,101872.31
2022-11-25T16:12:06.664Z,101870.00
2022-11-25T16:14:39.678Z,101886.13
2022-11-25T16:17:13.686Z,101891.03
2022-11-25T16:19:49.317Z,101894.56
2022-11-25T16:22:22.226Z,101893.31
2022-11-25T16:25:01.856Z,101896.50
2022-11-25T16:27:40.791Z,101901.91
2022-11-25T16:30:19.678Z,101913.03
2022-11-25T16:32:54.764Z,101912.25
2022-11-25T16:35:28.864Z,101920.63
2022-11-25T16:38:02.948Z,101927.59
2022-11-25T16:40:37.724Z,101931.16
2022-11-25T16:43:15.443Z,101939.16
2022-11-25T16:45:50.260Z,101935.94
2022-11-25T16:48:23.776Z,101944.88
2022-11-25T16:50:58.547Z,101949.66
2022-11-25T16:53:33.812Z,101957.00
2022-11-25T16:56:07.569Z,101961.78
2022-11-25T16:58:45.104Z,101965.88
2022-11-25T17:01:19.123Z,101965.34
2022-11-25T17:03:52.285Z,101965.44
2022-11-25T17:06:27.892Z,101976.31
2022-11-25T17:09:03.164Z,101983.72
2022-11-25T17:11:43.291Z,101980.06
2022-11-25T17:14:21.930Z,101980.75
2022-11-25T17:16:55.026Z,101982.09
2022-11-25T17:19:27.767Z,101982.19
2022-11-25T17:22:03.277Z,101982.41
2022-11-25T17:24:36.278Z,101979.22
2022-11-25T17:27:09.430Z,101986.31
2022-11-25T17:29:47.694Z,101986.19
2022-11-25T17:32:21.033Z,101990.53
2022-11-25T17:34:54.686Z,101995.00
2022-11-25T17:37:31.273Z,101988.25
2022-11-25T17:40:06.856Z,101996.72
2022-11-25T17:42:39.972Z,102001.97
2022-11-25T17:45:14.225Z,102009.94
2022-11-25T17:47:47.245Z,102010.63
2022-11-25T17:50:20.803Z,102017.72
2022-11-25T17:52:54.973Z,102021.59
2022-11-25T17:55:27.576Z,102021.84
2022-11-25T17:58:02.304Z,102027.88
2022-11-25T18:00:35.511Z,102038.94
2022-11-25T18:03:11.974Z,102050.16
2022-11-25T18:05:50.903Z,102052.31
2022-11-25T18:08:27.652Z,102057.63
2022-11-25T18:11:03.470Z,102061.97
2022-11-25T18:13:38.260Z,102067.66
2022-11-25T18:16:12.011Z,102074.47
2022-11-25T18:18:47.077Z,102078.84
2022-11-25T18:21:20.520Z,102072.88
2022-11-25T18:24:00.099Z,102082.91
2022-11-25T18:26:37.508Z,102078.63
2022-11-25T18:29:17.610Z,102084.72
2022-11-25T18:31:50.960Z,102095.00
2022-11-25T18:34:24.066Z,102095.00
2022-11-25T18:36:56.709Z,102093.72
2022-11-25T18:39:30.870Z,102101.03
2022-11-25T18:42:04.863Z,102105.22
2022-11-25T18:44:44.886Z,102107.66
2022-11-25T18:47:17.645Z,102111.66
2022-11-25T18:49:55.453Z,102110.25
2022-11-25T18:52:29.649Z,102114.97
2022-11-25T18:55:03.904Z,102113.66
2022-11-25T18:57:36.708Z,102120.06
2022-11-25T19:00:31.653Z,102126.47
2022-11-25T19:03:05.984Z,102129.88
2022-11-25T19:05:38.919Z,102127.34
2022-11-25T19:08:11.743Z,102135.34
2022-11-25T19:10:46.941Z,102135.56
2022-11-25T19:13:21.928Z,102137.16
2022-11-25T19:15:55.249Z,102137.81
2022-11-25T19:18:31.891Z,102138.63
2022-11-25T19:21:07.839Z,102146.38
2022-11-25T19:23:41.956Z,102150.41
2022-11-25T19:26:19.283Z,102149.25
2022-11-25T19:29:07.910Z,102159.09
2022-11-25T19:31:40.849Z,102166.69
2022-11-25T19:34:24.168Z,102167.31
2022-11-25T19:36:57.532Z,102167.81
2022-11-25T19:39:39.266Z,102167.50
2022-11-25T19:42:16.017Z,102168.28
2022-11-25T19:44:52.277Z,102167.66
2022-11-25T19:47:28.770Z,102173.38
2022-11-25T19:50:03.640Z,102179.75
2022-11-25T19:52:38.054Z,102183.00
2022-11-25T19:55:16.506Z,102189.13
2022-11-25T19:57:51.566Z,102190.72
2022-11-25T20:00:25.221Z,102200.25
2022-11-25T20:02:58.122Z,102196.25
2022-11-25T20:05:33.204Z,102199.78
2022-11-25T20:08:06.565Z,102211.41
2022-11-25T20:10:41.279Z,102213.34
2022-11-25T20:13:26.885Z,102210.13
2022-11-25T20:16:00.320Z,102217.34
2022-11-25T20:18:41.067Z,102217.22
2022-11-25T20:21:17.959Z,102224.59
2022-11-25T20:23:51.265Z,102231.56
2022-11-25T20:26:35.507Z,102233.31
2022-11-25T20:29:15.195Z,102244.44
2022-11-25T20:31:50.151Z,102247.69
2022-11-25T20:34:23.141Z,102247.84
2022-11-25T20:36:57.440Z,102253.97
2022-11-25T20:39:30.273Z,102252.66
2022-11-25T20:42:04.269Z,102265.38
2022-11-25T20:44:41.516Z,102271.53
2022-11-25T20:47:16.621Z,102274.94
2022-11-25T20:49:52.629Z,102278.81
2022-11-25T20:52:28.399Z,102285.88
2022-11-25T20:55:05.997Z,102285.09
2022-11-25T20:57:41.499Z,102293.81
2022-11-25T21:00:17.538Z,102294.75
2022-11-25T21:02:50.874Z,102296.53
2022-11-25T21:05:24.608Z,102305.88
2022-11-25T21:07:57.429Z,102312.16
2022-11-25T21:10:34.745Z,102312.47
2022-11-25T21:13:11.058Z,102319.56
2022-11-25T21:15:46.538Z,102319.72
2022-11-25T21:18:19.443Z,102320.69
2022-11-25T21:20:53.826Z,102318.13
2022-11-25T21:23:29.688Z,102326.47
2022-11-25T21:26:05.505Z,102342.25
2022-11-25T21:28:43.325Z,102341.94
2022-11-25T21:31:19.189Z,102343.59
2022-11-25T21:33:52.174Z,102350.16
2022-11-25T21:36:30.378Z,102351.94
2022-11-25T21:39:04.129Z,102348.06
2022-11-25T21:41:37.215Z,102345.81
2022-11-25T21:44:16.024Z,102351.28
2022-11-25T21:46:50.400Z,102359.03
2022-11-25T21:49:23.066Z,102363.22
2022-11-25T21:51:55.588Z,102367.09
2022-11-25T21:54:28.126Z,102366.59
2022-11-25T21:57:00.631Z,102372.88
2022-11-25T21:59:33.281Z,102370.13
2022-11-25T22:02:13.990Z,102369.66
2022-11-25T22:04:46.531Z,102372.41
2022-11-25T22:07:19.438Z,102370.31
2022-11-25T22:09:52.046Z,102374.31
2022-11-25T22:12:27.531Z,102369.81
2022-11-25T22:15:00.629Z,102375.47
2022-11-25T22:17:35.463Z,102371.59
2022-11-25T22:20:15.298Z,102378.69
2022-11-25T22:22:48.241Z,102371.13
2022-11-25T22:25:24.286Z,102375.47
2022-11-25T22:27:57.117Z,102382.06
2022-11-25T22:30:29.906Z,102380.94
2022-11-25T22:33:04.507Z,102391.38
2022-11-25T22:35:37.275Z,102390.75
2022-11-25T22:38:15.379Z,102392.34
2022-11-25T22:40:51.053Z,102391.00
2022-11-25T22:43:26.435Z,102397.50
2022-11-25T22:45:59.328Z,102395.38
2022-11-25T22:48:36.004Z,102399.88
2022-11-25T22:51:15.680Z,102402.94
2022-11-25T22:53:48.427Z,102401.63
2022-11-25T22:56:21.336Z,102407.13
2022-11-25T22:58:58.818Z,102407.59
2022-11-25T23:01:31.645Z,102415.81
2022-11-25T23:04:06.701Z,102418.69
2022-11-25T23:06:39.392Z,102425.28
2022-11-25T23:09:14.437Z,102427.38
2022-11-25T23:11:47.527Z,102428.81
2022-11-25T23:14:20.086Z,102431.41
2022-11-25T23:16:52.698Z,102434.91
2022-11-25T23:19:27.171Z,102436.53
2022-11-25T23:21:59.873Z,102435.56
2022-11-25T23:24:32.459Z,102432.16
2022-11-25T23:27:05.266Z,102439.09
2022-11-25T23:29:37.920Z,102443.75
2022-11-25T23:32:21.047Z,102439.06
2022-11-25T23:34:55.211Z,102452.75
2022-11-25T23:37:28.636Z,102453.22
2022-11-25T23:40:01.419Z,102444.22
2022-11-25T23:42:34.036Z,102444.06
2022-11-25T23:45:07.472Z,102449.53
2022-11-25T23:47:41.631Z,102452.25
2022-11-25T23:50:23.010Z,102445.47
2022-11-25T23:52:57.472Z,102444.81
2022-11-25T23:55:32.419Z,102448.84
2022-11-25T23:58:10.319Z,102455.25
